ADDS TAF Board (Experimental) INFO Settings
IDs: Format: Expanded Condensed

KSAN - San Diego Intl Arpt, CA, US

Issued at 0520 UTC 26 Jun 2016
Updated at: 0807 UTC 26 Jun 2016
Time0751Z 26/09Z 26/10Z 26/11Z 26/12Z 26/13Z 26/14Z 26/15Z 26/16Z 26/17Z 26/18Z 26/19Z 26/20Z 26/21Z
Type OBS PRVL PRVL PRVL PRVL PRVL PRVL PRVL PRVL PRVL PRVL PRVL PRVL PRVL
VIS 10 >6 >6 >6 >6 >6 >6 >6 >6 >6 >6 >6 >6 >6
CIG -- 13 13 13 13 13 13 13 13 13 13 -- -- --
Cover FEW OVC OVC OVC OVC OVC OVC OVC OVC OVC OVC SCT SCT SCT
FltCat VFR MVFR MVFR MVFR MVFR MVFR MVFR MVFR MVFR MVFR MVFR VFR VFR VFR
WX -- -- -- -- -- -- -- -- -- -- -- -- -- --
WDir 190 VRB VRB VRB VRB VRB VRB VRB VRB VRB VRB 220 220 220
WSpd 4 4 4 4 4 4 4 4 4 4 4 8 8 8
WGst -- -- -- -- -- -- -- -- -- -- -- -- -- --
R09/27
XWnd -4 VRB VRB VRB VRB VRB VRB VRB VRB VRB VRB -7 -7 -7
HWnd 0 VRB VRB VRB VRB VRB VRB VRB VRB VRB VRB -3 -3 -3

NOTE: TEMPO conditions in [brackets]. Keep in mind TEMPO conditions might be better (lower impact) than prevailing conditions.

Raw TAF
KSAN 260520Z 2606/2712 VRB04KT P6SM SCT015
  FM260700 VRB04KT P6SM OVC013
  FM261900 22008KT P6SM SCT015
  FM270100 VRB04KT P6SM FEW012
  FM270700 VRB04KT P6SM OVC010


Raw METAR
KSAN 260751Z 19004KT 10SM FEW013 19/15 A2989 RMK AO2 SLP121 T01890150 402110178 $
KSAN 260651Z 00000KT 10SM FEW013 19/15 A2989 RMK AO2 SLP121 T01890150 $
KSAN 260551Z 22003KT 10SM FEW015 19/15 A2989 RMK AO2 SLP123 T01890150 10200 20189 51009 $

METAR Board
Radar Display
Forecast Discussion

TAF Board Legend

Potential Impact
Threat None Slight Moderate High
Visibility (sm) ≥5.1 5.1>X≥3 3>X≥1 <1
Ceiling (100 ft) ≥30.1 30.1>X≥10 10>X≥5 <5
Wind Speed (kt) <10 10≤X<20 20≤X<30 ≥30
Wind Gust (kt) <15 15≤X<25 25≤X<35 ≥35
Weather No Wx Reported VCTS,-TS,-FZRA,SN TS,FZRA +TS,+FZRA,+SN